CYYJ

Victoria International

Airport
ICAO code
CYYJ
Summary
ICAO Region
NAM
ICAO Territory
Location

North Saanich, British Columbia,

Coordinates
48° 38' 49" N , 123° 25' 34" W
KCC
Metar
Observation
CYYJ 092000Z 12012G19KT 30SM BKN017 OVC026 05/02 A2975 RMK SC5SC3 PRESFR SLP078
Station
Victoria Int. Airport, B. C.
Date/Time
2022-12-09 20:00:00
Wind direction
120°
Wind speed
12 kts
Lowest cloud amount
broken clouds
Temperature
5°C
Dew point
2°C
Humidity
80%
Weather condition
n/a

Description

Victoria International Airport serves Victoria, British Columbia, Canada. It is 12 nm north northwest of the city, in North Saanich, quite close to the town of Sidney on the Saanich Peninsula.

Climatology

Temperate Marine climate/Oceanic climate (Köppen climate classification Cfb). Moderately cool summer and comparatively warm winter.

Runways

Designator Length Width Surface Rops
13/31 1525 61 ASP Yes/Yes
2/20 1532 61 ASP Yes/Yes
9/27 2134 61 ASP Yes/Yes

Airport map

Aerial View

SKYbrary Partners:

Safety knowledge contributed by: